Ana Sayfa
METAR-TAF:

METAR-TAF

Havaalanları :

Farmingdale, New York, Amerika Birleşik Devletleri

Enlem: 40-44-03N, Boylam: 073-25-01W, yükseklik: 24 m

Güncel hava durumu gözlemi

Rapor saat 17:53 UTC de 1 saat ve 0 dakika önce yapıldı.
Rüzgar kuzey/kuzeybatıdan 11 kt ve 22 kt'a kadar ani rüzgarlar
Sıcaklık -1°C
Nem 28%
Basınç 1024 hPa
Görüş mesafesi: 16.1 km
Açık gökyüzü

METAR: KFRG 201753Z 34011G22KT 10SM CLR M01/M17 A3025 RMK AO2 PK WND 01027/1706 SLP245 T10111172 11011 21061 50002

Saat: 13:53 (18:53 UTC)


TAF: eksik

4.000'den fazla havaalanı için hava durumu gözlemleri ve tahminleri (METAR ve TAF raporları).

Kullanılabilir istasyonlar harita üzerinde sarı ve kırmızı noktalarla gösterilir.

İstasyonun adını görmek için fareyi noktanın üzerinde gezdirin.

Sonrasında hava gözlem ve tahminlerini görmek için tıklayın.

Haritayı değiştirmek için: yaklaştırmak için siyah artı işaretli yeşil düğmeye ve uzaklaştırmak için de eksi işaretli düğmeye hızla tıklayın; bitişik haritalar için yeşil okları kullanın.


METAR-TAF: